createdAt,value
2018-09-09T00:00:08.152Z,5.03
2018-09-09T00:02:37.046Z,4.73
2018-09-09T00:05:07.104Z,4.70
2018-09-09T00:07:35.651Z,5.30
2018-09-09T00:10:04.690Z,4.93
2018-09-09T00:17:10.213Z,5.40
2018-09-09T00:19:38.872Z,6.77
2018-09-09T00:22:07.399Z,6.13
2018-09-09T00:24:36.428Z,6.00
2018-09-09T00:27:05.324Z,7.40
2018-09-09T00:29:34.736Z,6.30
2018-09-09T00:32:03.231Z,6.40
2018-09-09T00:34:31.759Z,6.60
2018-09-09T00:37:00.189Z,5.93
2018-09-09T00:39:28.871Z,5.60
2018-09-09T00:41:57.363Z,4.97
2018-09-09T00:44:25.954Z,4.87
2018-09-09T00:46:54.375Z,4.77
2018-09-09T00:49:28.251Z,5.47
2018-09-09T00:52:02.080Z,4.80
2018-09-09T00:54:31.803Z,4.50
2018-09-09T00:57:00.337Z,5.07
2018-09-09T00:59:29.059Z,4.90
2018-09-09T01:01:57.654Z,5.50
2018-09-09T01:04:26.149Z,5.80
2018-09-09T01:06:54.744Z,5.90
2018-09-09T01:09:38.166Z,5.87
2018-09-09T01:12:06.820Z,6.43
2018-09-09T01:14:35.853Z,6.40
2018-09-09T01:17:04.770Z,8.67
2018-09-09T01:19:33.887Z,7.07
2018-09-09T01:22:02.315Z,7.23
2018-09-09T01:24:30.983Z,7.90
2018-09-09T01:26:59.455Z,7.20
2018-09-09T01:29:28.043Z,7.37
2018-09-09T01:31:56.603Z,7.17
2018-09-09T01:34:25.227Z,7.13
2018-09-09T01:36:53.683Z,6.80
2018-09-09T01:39:22.207Z,6.17
2018-09-09T01:41:50.746Z,6.90
2018-09-09T01:44:19.385Z,7.03
2018-09-09T01:46:47.933Z,7.17
2018-09-09T01:49:16.461Z,6.90
2018-09-09T01:51:44.846Z,6.53
2018-09-09T01:54:13.414Z,7.53
2018-09-09T01:56:41.868Z,8.07
2018-09-09T01:59:10.349Z,7.47
2018-09-09T02:01:38.740Z,7.40
2018-09-09T02:04:07.365Z,7.00
2018-09-09T02:06:35.802Z,7.43
2018-09-09T02:09:06.195Z,6.73
2018-09-09T02:11:34.829Z,7.00
2018-09-09T02:14:03.429Z,6.73
2018-09-09T02:16:31.795Z,7.73
2018-09-09T02:19:00.410Z,8.70
2018-09-09T02:21:28.867Z,6.70
2018-09-09T02:23:57.444Z,7.00
2018-09-09T02:26:25.918Z,7.80
2018-09-09T02:28:54.536Z,8.00
2018-09-09T02:31:22.942Z,7.43
2018-09-09T02:33:51.441Z,7.77
2018-09-09T02:36:19.935Z,7.43
2018-09-09T02:38:48.515Z,7.60
2018-09-09T02:41:16.923Z,8.13
2018-09-09T02:43:45.589Z,7.63
2018-09-09T02:46:14.139Z,8.17
2018-09-09T02:48:42.749Z,8.10
2018-09-09T02:51:11.293Z,8.57
2018-09-09T02:53:39.812Z,8.37
2018-09-09T02:56:10.761Z,9.07
2018-09-09T02:58:39.297Z,9.43
2018-09-09T03:01:08.006Z,8.47
2018-09-09T03:03:37.646Z,8.63
2018-09-09T03:06:06.674Z,8.33
2018-09-09T03:08:36.023Z,7.97
2018-09-09T03:11:09.807Z,7.80
2018-09-09T03:13:38.409Z,8.07
2018-09-09T03:16:07.325Z,8.40
2018-09-09T03:18:36.456Z,7.70
2018-09-09T03:21:05.659Z,7.87
2018-09-09T03:23:34.768Z,7.40
2018-09-09T03:26:03.336Z,7.73
2018-09-09T03:28:32.744Z,8.03
2018-09-09T03:31:01.299Z,8.27
2018-09-09T03:40:27.939Z,6.53
2018-09-09T03:42:56.454Z,6.77
2018-09-09T03:45:25.108Z,6.70
2018-09-09T03:47:53.625Z,6.60
2018-09-09T03:50:22.282Z,6.30
2018-09-09T03:52:50.749Z,6.27
2018-09-09T03:55:19.345Z,6.23
2018-09-09T03:57:47.874Z,6.23
2018-09-09T04:00:16.467Z,6.57
2018-09-09T04:02:44.911Z,6.83
2018-09-09T04:05:13.379Z,7.37
2018-09-09T04:07:41.827Z,7.37
2018-09-09T04:10:10.497Z,7.73
2018-09-09T04:12:39.059Z,8.60
2018-09-09T04:15:07.546Z,8.57
2018-09-09T04:17:36.826Z,8.63
2018-09-09T04:20:06.469Z,8.20
2018-09-09T04:22:35.566Z,7.90
2018-09-09T04:25:04.866Z,8.40
2018-09-09T04:27:33.374Z,7.83
2018-09-09T04:30:02.051Z,7.70
2018-09-09T04:32:30.442Z,7.37
2018-09-09T04:34:58.907Z,7.00
2018-09-09T04:37:27.285Z,7.40
2018-09-09T04:39:55.841Z,7.00
2018-09-09T04:42:24.232Z,7.60
2018-09-09T04:44:52.857Z,7.13
2018-09-09T04:47:21.341Z,7.07
2018-09-09T04:49:49.887Z,7.40
2018-09-09T04:52:18.382Z,6.80
2018-09-09T04:54:46.975Z,6.70
2018-09-09T04:57:15.472Z,6.93
2018-09-09T04:59:44.101Z,6.17
2018-09-09T05:02:12.464Z,7.00
2018-09-09T05:04:40.973Z,6.60
2018-09-09T05:07:09.627Z,6.47
2018-09-09T05:09:38.257Z,5.97
2018-09-09T05:12:07.622Z,6.40
2018-09-09T05:14:36.855Z,6.83
2018-09-09T05:17:06.459Z,6.17
2018-09-09T05:19:35.258Z,6.57
2018-09-09T05:22:04.121Z,8.20
2018-09-09T05:24:32.681Z,6.73
2018-09-09T05:27:01.194Z,7.30
2018-09-09T05:29:29.678Z,6.07
2018-09-09T05:31:59.151Z,6.13
2018-09-09T05:34:27.570Z,6.83
2018-09-09T05:36:56.053Z,6.70
2018-09-09T05:39:24.484Z,6.07
2018-09-09T05:41:54.092Z,6.33
2018-09-09T05:44:22.481Z,6.50
2018-09-09T05:46:51.057Z,5.87
2018-09-09T05:49:19.433Z,6.87
2018-09-09T05:51:48.041Z,5.70
2018-09-09T05:54:16.751Z,7.23
2018-09-09T05:56:45.194Z,7.30
2018-09-09T05:59:13.614Z,6.07
2018-09-09T06:01:42.136Z,5.97
2018-09-09T06:04:10.533Z,6.50
2018-09-09T06:06:39.016Z,5.93
2018-09-09T06:09:10.323Z,5.70
2018-09-09T06:11:38.883Z,5.93
2018-09-09T06:17:09.332Z,5.40
2018-09-09T06:19:37.819Z,7.03
2018-09-09T06:22:06.765Z,5.83
2018-09-09T06:24:35.739Z,5.17
2018-09-09T06:27:04.737Z,5.60
2018-09-09T06:29:33.377Z,5.67
2018-09-09T06:32:01.804Z,5.60
2018-09-09T06:34:30.488Z,6.60
2018-09-09T06:36:59.004Z,5.60
2018-09-09T06:39:27.460Z,5.60
2018-09-09T06:41:55.881Z,5.40
2018-09-09T06:44:24.424Z,4.73
2018-09-09T06:46:52.887Z,4.47
2018-09-09T06:49:21.510Z,4.87
2018-09-09T06:51:49.927Z,4.27
2018-09-09T06:54:18.369Z,6.27
2018-09-09T06:56:46.780Z,5.10
2018-09-09T06:59:15.298Z,4.97
2018-09-09T07:01:43.714Z,6.00
2018-09-09T07:04:12.308Z,5.50
2018-09-09T07:06:40.734Z,6.30
2018-09-09T07:09:10.009Z,4.77
2018-09-09T07:11:38.561Z,5.43
2018-09-09T07:14:07.191Z,5.90
2018-09-09T07:16:36.183Z,6.53
2018-09-09T07:19:05.447Z,5.23
2018-09-09T07:21:34.197Z,4.50
2018-09-09T07:24:02.725Z,5.17
2018-09-09T07:26:31.150Z,5.10
2018-09-09T07:28:59.755Z,5.10
2018-09-09T07:31:28.234Z,5.67
2018-09-09T07:33:56.719Z,5.00
2018-09-09T07:36:25.086Z,5.23
2018-09-09T07:38:53.538Z,4.67
2018-09-09T07:41:22.004Z,5.27
2018-09-09T07:43:50.838Z,5.13
2018-09-09T07:46:19.337Z,5.43
2018-09-09T07:48:47.969Z,4.90
2018-09-09T07:51:16.401Z,5.50
2018-09-09T07:53:44.884Z,5.17
2018-09-09T07:56:13.296Z,5.00
2018-09-09T07:58:41.675Z,5.07
2018-09-09T08:01:10.121Z,4.47
2018-09-09T08:03:38.599Z,5.00
2018-09-09T08:06:07.067Z,5.20
2018-09-09T08:08:36.370Z,5.50
2018-09-09T08:11:05.070Z,4.40
2018-09-09T08:13:33.669Z,5.10
2018-09-09T08:16:02.479Z,5.33
2018-09-09T08:18:30.973Z,5.00
2018-09-09T08:20:59.480Z,4.97
2018-09-09T08:23:27.963Z,5.07
2018-09-09T08:25:56.974Z,5.30
2018-09-09T08:28:26.056Z,5.27
2018-09-09T08:30:54.475Z,5.30
2018-09-09T08:33:22.914Z,6.17
2018-09-09T08:35:51.358Z,5.17
2018-09-09T08:38:19.780Z,6.40
2018-09-09T08:40:48.220Z,6.40
2018-09-09T08:43:16.709Z,5.77
2018-09-09T08:45:45.077Z,5.90
2018-09-09T08:48:13.561Z,5.53
2018-09-09T08:50:42.047Z,5.70
2018-09-09T08:53:10.781Z,5.67
2018-09-09T08:55:39.325Z,5.70
2018-09-09T08:58:07.802Z,5.57
2018-09-09T09:00:37.166Z,5.50
2018-09-09T09:03:06.601Z,5.23
2018-09-09T09:05:35.050Z,5.50
2018-09-09T09:08:03.567Z,5.37
2018-09-09T09:10:32.285Z,6.07
2018-09-09T09:13:00.811Z,6.00
2018-09-09T09:15:29.211Z,5.20
2018-09-09T09:17:57.650Z,5.73
2018-09-09T09:20:26.057Z,5.43
2018-09-09T09:22:54.541Z,5.43
2018-09-09T09:25:22.926Z,5.37
2018-09-09T09:27:51.370Z,4.90
2018-09-09T09:30:19.850Z,5.07
2018-09-09T09:32:48.888Z,4.60
2018-09-09T09:35:17.330Z,7.80
2018-09-09T09:37:45.722Z,6.33
2018-09-09T09:40:14.151Z,5.30
2018-09-09T09:42:42.666Z,5.90
2018-09-09T09:45:11.035Z,5.67
2018-09-09T09:47:39.500Z,5.90
2018-09-09T09:50:07.942Z,5.40
2018-09-09T09:52:37.532Z,5.03
2018-09-09T09:55:06.600Z,4.67
2018-09-09T09:57:35.736Z,4.70
2018-09-09T10:00:05.169Z,4.50
2018-09-09T10:02:33.642Z,3.73
2018-09-09T10:05:02.121Z,3.40
2018-09-09T10:07:30.530Z,3.13
2018-09-09T10:09:59.023Z,2.97
2018-09-09T10:12:27.689Z,3.10
2018-09-09T10:14:56.126Z,3.40
2018-09-09T10:17:24.576Z,3.13
2018-09-09T10:19:53.046Z,3.70
2018-09-09T10:22:21.494Z,3.00
2018-09-09T10:24:50.003Z,3.27
2018-09-09T10:27:18.513Z,4.07
2018-09-09T10:29:47.055Z,3.90
2018-09-09T10:32:15.508Z,3.27
2018-09-09T10:34:44.031Z,3.20
2018-09-09T10:37:12.463Z,2.90
2018-09-09T10:39:41.005Z,3.03
2018-09-09T10:42:09.762Z,2.83
2018-09-09T10:44:38.274Z,2.73
2018-09-09T10:47:07.070Z,2.53
2018-09-09T10:49:36.332Z,2.40
2018-09-09T10:52:05.331Z,2.50
2018-09-09T10:54:33.888Z,2.50
2018-09-09T10:57:02.890Z,2.20
2018-09-09T10:59:31.331Z,2.43
2018-09-09T11:01:59.709Z,2.23
2018-09-09T11:04:28.265Z,2.23
2018-09-09T11:06:57.098Z,2.20
2018-09-09T11:09:25.722Z,2.30
2018-09-09T11:11:54.086Z,1.90
2018-09-09T11:14:22.575Z,1.90
2018-09-09T11:16:51.041Z,3.57
2018-09-09T11:19:19.592Z,2.50
2018-09-09T11:21:48.031Z,2.40
2018-09-09T11:24:16.635Z,2.20
2018-09-09T11:26:45.075Z,2.00
2018-09-09T11:29:13.480Z,1.97
2018-09-09T11:31:41.955Z,2.37
2018-09-09T11:34:10.495Z,1.93
2018-09-09T11:36:38.939Z,1.90
2018-09-09T11:39:08.793Z,1.70
2018-09-09T11:41:37.261Z,1.70
2018-09-09T11:44:06.753Z,1.73
2018-09-09T11:46:35.527Z,1.97
2018-09-09T11:49:04.284Z,1.70
2018-09-09T11:51:33.430Z,1.90
2018-09-09T11:54:01.899Z,1.80
2018-09-09T11:56:30.382Z,1.60
2018-09-09T11:58:59.012Z,2.00
2018-09-09T12:01:27.467Z,1.70
2018-09-09T12:03:56.005Z,1.60
2018-09-09T12:06:24.449Z,1.70
2018-09-09T12:08:53.061Z,1.63
2018-09-09T12:11:21.452Z,1.90
2018-09-09T12:13:50.045Z,1.80
2018-09-09T12:16:18.619Z,1.87
2018-09-09T12:18:47.134Z,2.00
2018-09-09T12:21:15.525Z,1.97
2018-09-09T12:23:44.067Z,1.80
2018-09-09T12:26:12.565Z,2.10
2018-09-09T12:28:41.279Z,2.37
2018-09-09T12:31:09.784Z,1.93
2018-09-09T12:33:38.211Z,2.00
2018-09-09T12:36:07.786Z,2.20
2018-09-09T12:38:36.591Z,1.87
2018-09-09T12:41:05.283Z,1.90
2018-09-09T12:43:39.077Z,2.00
2018-09-09T12:46:13.504Z,2.03
2018-09-09T12:48:47.391Z,2.10
2018-09-09T12:51:15.922Z,2.20
2018-09-09T12:53:44.536Z,2.00
2018-09-09T12:56:12.980Z,2.03
2018-09-09T12:58:41.522Z,1.80
2018-09-09T13:01:09.966Z,1.93
2018-09-09T13:03:38.541Z,1.83
2018-09-09T13:06:07.883Z,1.90
2018-09-09T13:08:36.709Z,1.80
2018-09-09T13:11:05.259Z,2.00
2018-09-09T13:13:33.686Z,2.10
2018-09-09T13:16:02.131Z,1.80
2018-09-09T13:18:30.666Z,2.23
2018-09-09T13:20:59.090Z,1.90
2018-09-09T13:23:27.791Z,2.00
2018-09-09T13:25:56.264Z,1.90
2018-09-09T13:28:24.862Z,1.67
2018-09-09T13:30:53.299Z,1.80
2018-09-09T13:33:22.151Z,1.80
2018-09-09T13:35:50.597Z,1.80
2018-09-09T13:38:19.505Z,1.70
2018-09-09T13:40:47.940Z,1.80
2018-09-09T13:43:16.656Z,1.60
2018-09-09T13:45:45.162Z,1.80
2018-09-09T13:48:13.765Z,2.00
2018-09-09T13:50:42.436Z,1.93
2018-09-09T13:53:10.913Z,2.03
2018-09-09T13:55:39.355Z,2.23
2018-09-09T13:58:07.955Z,1.80
2018-09-09T14:00:37.414Z,1.87
2018-09-09T14:03:06.511Z,1.60
2018-09-09T14:05:35.299Z,1.83
2018-09-09T14:08:03.827Z,1.90
2018-09-09T14:10:32.224Z,1.97
2018-09-09T14:13:00.705Z,1.60
2018-09-09T14:15:29.112Z,1.70
2018-09-09T14:17:57.607Z,1.87
2018-09-09T14:20:26.086Z,1.93
2018-09-09T14:22:54.578Z,1.80
2018-09-09T14:25:22.987Z,1.60
2018-09-09T14:27:51.516Z,1.73
2018-09-09T14:30:20.064Z,1.57
2018-09-09T14:32:48.642Z,1.80
2018-09-09T14:35:17.074Z,1.70
2018-09-09T14:37:45.549Z,1.77
2018-09-09T14:40:14.083Z,2.10
2018-09-09T14:42:42.853Z,1.90
2018-09-09T14:45:11.268Z,2.00
2018-09-09T14:47:39.786Z,1.90
2018-09-09T14:50:08.320Z,1.93
2018-09-09T14:52:37.648Z,1.90
2018-09-09T14:55:06.975Z,1.80
2018-09-09T14:57:36.172Z,1.80
2018-09-09T15:00:05.271Z,1.67
2018-09-09T15:02:33.861Z,2.00
2018-09-09T15:05:02.422Z,2.00
2018-09-09T15:07:30.858Z,2.10
2018-09-09T15:09:59.294Z,1.97
2018-09-09T15:12:27.853Z,1.80
2018-09-09T15:14:56.292Z,1.83
2018-09-09T15:17:24.719Z,1.70
2018-09-09T15:19:53.133Z,2.30
2018-09-09T15:22:21.653Z,1.70
2018-09-09T15:24:50.316Z,1.97
2018-09-09T15:27:19.176Z,1.70
2018-09-09T15:29:47.589Z,1.83
2018-09-09T15:32:17.025Z,2.10
2018-09-09T15:34:45.436Z,1.90
2018-09-09T15:37:13.966Z,1.80
2018-09-09T15:39:42.715Z,2.03
2018-09-09T15:42:12.207Z,1.90
2018-09-09T15:44:40.714Z,1.90
2018-09-09T15:47:09.244Z,1.97
2018-09-09T15:49:37.701Z,1.57
2018-09-09T15:52:06.923Z,2.00
2018-09-09T15:54:36.162Z,1.80
2018-09-09T15:57:05.386Z,2.20
2018-09-09T16:00:37.327Z,1.93
2018-09-09T16:03:06.198Z,1.73
2018-09-09T16:05:35.273Z,2.00
2018-09-09T16:08:03.765Z,1.80
2018-09-09T16:10:32.177Z,1.77
2018-09-09T16:13:00.660Z,1.70
2018-09-09T16:15:29.371Z,2.00
2018-09-09T16:17:57.935Z,2.20
2018-09-09T16:20:26.336Z,1.80
2018-09-09T16:22:54.846Z,1.80
2018-09-09T16:25:23.339Z,1.90
2018-09-09T16:27:51.821Z,2.07
2018-09-09T16:30:20.344Z,1.77
2018-09-09T16:32:48.899Z,1.60
2018-09-09T16:35:17.333Z,1.97
2018-09-09T16:37:45.808Z,1.70
2018-09-09T16:40:14.245Z,1.90
2018-09-09T16:42:42.839Z,1.67
2018-09-09T16:45:11.331Z,1.80
2018-09-09T16:47:39.971Z,1.90
2018-09-09T16:50:08.723Z,2.27
2018-09-09T16:52:37.485Z,1.83
2018-09-09T16:55:06.947Z,1.70
2018-09-09T16:57:36.110Z,1.93
2018-09-09T17:00:06.314Z,2.00
2018-09-09T17:02:35.524Z,2.30
2018-09-09T17:05:04.504Z,2.00
2018-09-09T17:07:33.021Z,2.17
2018-09-09T17:10:01.516Z,2.10
2018-09-09T17:12:29.960Z,1.83
2018-09-09T17:14:58.326Z,1.70
2018-09-09T17:17:26.898Z,2.00
2018-09-09T17:19:55.299Z,1.90
2018-09-09T17:22:23.724Z,1.73
2018-09-09T17:24:52.165Z,1.77
2018-09-09T17:27:20.603Z,1.90
2018-09-09T17:29:54.144Z,1.97
2018-09-09T17:32:22.640Z,1.87
2018-09-09T17:34:51.216Z,1.90
2018-09-09T17:37:19.731Z,1.70
2018-09-09T17:39:48.313Z,2.00
2018-09-09T17:42:16.936Z,2.00
2018-09-09T17:44:45.319Z,2.10
2018-09-09T17:47:13.866Z,1.80
2018-09-09T17:49:42.697Z,2.00
2018-09-09T17:52:11.346Z,1.93
2018-09-09T17:54:39.757Z,1.90
2018-09-09T17:57:08.387Z,1.80
2018-09-09T17:59:36.852Z,1.67
2018-09-09T18:02:05.688Z,1.90
2018-09-09T18:04:34.107Z,2.23
2018-09-09T18:07:02.740Z,2.20
2018-09-09T18:09:31.142Z,2.07
2018-09-09T18:11:59.623Z,1.90
2018-09-09T18:14:28.123Z,2.00
2018-09-09T18:16:56.607Z,1.90
2018-09-09T18:19:25.020Z,2.20
2018-09-09T18:21:53.727Z,2.10
2018-09-09T18:24:22.188Z,2.13
2018-09-09T18:26:50.830Z,1.97
2018-09-09T18:29:19.263Z,1.90
2018-09-09T18:31:47.706Z,2.00
2018-09-09T18:34:16.170Z,2.20
2018-09-09T18:36:45.856Z,1.97
2018-09-09T18:39:15.042Z,2.00
2018-09-09T18:41:43.720Z,1.90
2018-09-09T18:44:12.126Z,2.00
2018-09-09T18:46:41.676Z,1.77
2018-09-09T18:49:10.051Z,1.80
2018-09-09T18:51:38.682Z,1.83
2018-09-09T18:54:07.224Z,1.70
2018-09-09T18:56:35.780Z,1.93
2018-09-09T18:59:04.749Z,2.00
2018-09-09T19:01:33.471Z,1.80
2018-09-09T19:04:02.047Z,1.90
2018-09-09T19:06:30.630Z,1.73
2018-09-09T19:08:59.095Z,1.90
2018-09-09T19:11:27.596Z,1.70
2018-09-09T19:13:56.025Z,2.00
2018-09-09T19:16:24.895Z,1.70
2018-09-09T19:18:53.368Z,1.90
2018-09-09T19:21:22.004Z,1.87
2018-09-09T19:23:50.580Z,1.73
2018-09-09T19:26:19.114Z,1.63
2018-09-09T19:28:47.604Z,1.90
2018-09-09T19:31:16.355Z,1.60
2018-09-09T19:33:44.784Z,1.80
2018-09-09T19:36:13.976Z,1.70
2018-09-09T19:38:42.390Z,1.70
2018-09-09T19:41:11.004Z,1.87
2018-09-09T19:43:39.436Z,1.90
2018-09-09T19:46:08.383Z,1.87
2018-09-09T19:48:36.825Z,1.90
2018-09-09T19:51:05.394Z,2.00
2018-09-09T19:53:33.823Z,1.90
2018-09-09T19:56:02.459Z,1.90
2018-09-09T19:58:31.318Z,2.20
2018-09-09T20:00:59.772Z,2.00
2018-09-09T20:03:28.220Z,1.80
2018-09-09T20:05:56.927Z,1.70
2018-09-09T20:08:26.187Z,1.60
2018-09-09T20:10:55.765Z,1.70
2018-09-09T20:13:24.807Z,2.10
2018-09-09T20:15:54.082Z,2.20
2018-09-09T20:18:23.029Z,1.70
2018-09-09T20:20:51.517Z,1.87
2018-09-09T20:23:20.024Z,1.90
2018-09-09T20:25:48.629Z,1.60
2018-09-09T20:28:17.202Z,1.70
2018-09-09T20:30:45.709Z,1.60
2018-09-09T20:33:14.182Z,1.80
2018-09-09T20:35:42.689Z,2.07
2018-09-09T20:38:11.147Z,1.60
2018-09-09T20:40:39.643Z,1.60
2018-09-09T20:43:08.098Z,1.50
2018-09-09T20:45:36.637Z,1.70
2018-09-09T20:48:05.049Z,1.70
2018-09-09T20:50:33.675Z,2.00
2018-09-09T20:53:02.209Z,1.70
2018-09-09T20:55:30.690Z,1.60
2018-09-09T20:57:59.090Z,1.83
2018-09-09T21:00:27.737Z,3.53
2018-09-09T21:02:56.375Z,4.00
2018-09-09T21:05:24.968Z,3.40
2018-09-09T21:07:53.391Z,3.20
2018-09-09T21:10:21.906Z,2.30
2018-09-09T21:12:50.397Z,2.23
2018-09-09T21:15:19.059Z,2.90
2018-09-09T21:17:47.498Z,2.53
2018-09-09T21:20:16.269Z,2.30
2018-09-09T21:22:45.328Z,2.00
2018-09-09T21:25:14.806Z,1.90
2018-09-09T21:27:43.398Z,2.03
2018-09-09T21:30:12.068Z,2.30
2018-09-09T21:32:40.510Z,1.83
2018-09-09T21:35:09.122Z,1.80
2018-09-09T21:37:37.552Z,1.83
2018-09-09T21:40:06.486Z,2.00
2018-09-09T21:42:34.914Z,1.80
2018-09-09T21:45:03.444Z,1.60
2018-09-09T21:47:31.885Z,1.80
2018-09-09T21:50:00.394Z,1.60
2018-09-09T21:52:28.854Z,1.63
2018-09-09T21:54:57.403Z,1.40
2018-09-09T21:57:25.864Z,1.80
2018-09-09T21:59:54.349Z,1.83
2018-09-09T22:02:22.792Z,1.80
2018-09-09T22:04:51.323Z,1.60
2018-09-09T22:07:19.707Z,1.63
2018-09-09T22:09:48.215Z,1.70
2018-09-09T22:12:16.623Z,1.93
2018-09-09T22:14:46.199Z,1.80
2018-09-09T22:17:14.960Z,2.00
2018-09-09T22:19:43.820Z,1.87
2018-09-09T22:22:12.210Z,1.57
2018-09-09T22:24:40.707Z,1.90
2018-09-09T22:27:09.137Z,1.77
2018-09-09T22:29:37.716Z,1.90
2018-09-09T22:32:06.120Z,2.03
2018-09-09T22:34:34.762Z,2.00
2018-09-09T22:37:03.193Z,1.70
2018-09-09T22:39:31.606Z,2.00
2018-09-09T22:42:00.016Z,2.10
2018-09-09T22:44:28.642Z,2.20
2018-09-09T22:46:57.089Z,2.13
2018-09-09T22:49:25.514Z,2.00
2018-09-09T22:51:53.963Z,1.80
2018-09-09T22:54:22.557Z,1.70
2018-09-09T22:56:51.029Z,1.77
2018-09-09T22:59:19.522Z,1.70
2018-09-09T23:01:48.071Z,1.80
2018-09-09T23:04:16.599Z,1.90
2018-09-09T23:06:45.947Z,1.90
2018-09-09T23:09:14.914Z,1.97
2018-09-09T23:11:43.307Z,1.77
2018-09-09T23:14:11.886Z,1.90
2018-09-09T23:16:40.372Z,2.03
2018-09-09T23:19:09.006Z,1.87
2018-09-09T23:21:37.412Z,2.20
2018-09-09T23:24:06.003Z,2.07
2018-09-09T23:26:34.511Z,2.00
2018-09-09T23:29:03.155Z,2.10
2018-09-09T23:31:31.576Z,2.10
2018-09-09T23:34:00.106Z,2.53
2018-09-09T23:36:28.595Z,2.10
2018-09-09T23:38:57.189Z,2.07
2018-09-09T23:41:25.596Z,2.43
2018-09-09T23:43:54.269Z,2.93
2018-09-09T23:46:22.695Z,2.70
2018-09-09T23:48:51.278Z,2.60
2018-09-09T23:51:19.688Z,2.90
2018-09-09T23:53:48.288Z,2.97
2018-09-09T23:56:16.787Z,3.00
2018-09-09T23:58:46.320Z,2.90
